Time;durP1;ratioP1;P1;durP2;ratioP2;P2;SDS_P1;SDS_P2;PMS_P1;PMS_P2;Temp;Humidity;BMP_temperature;BMP_pressure;BME280_temperature;BME280_humidity;BME280_pressure;Samples;Min_cycle;Max_cycle;Signal;HPM_P1;HPM_P2
2020/12/23 00:00:52;;;;;;;22.67;18.33;;;12.00;94.50;;;;;;5051681;28;20044;-75
2020/12/23 00:03:17;;;;;;;20.73;16.35;;;12.00;94.40;;;;;;5053982;28;20051;-76
2020/12/23 00:05:43;;;;;;;24.25;18.25;;;12.00;94.50;;;;;;5045106;28;20233;-75
2020/12/23 00:08:09;;;;;;;20.27;15.65;;;12.00;94.50;;;;;;5055020;28;20236;-72
2020/12/23 00:10:34;;;;;;;21.35;16.98;;;12.00;94.50;;;;;;5055627;28;20025;-72
2020/12/23 00:13:00;;;;;;;19.17;16.50;;;12.00;94.40;;;;;;5051269;28;20047;-74
2020/12/23 00:15:26;;;;;;;25.05;20.50;;;12.00;94.40;;;;;;5056098;28;20349;-76
2020/12/23 00:17:52;;;;;;;28.15;25.15;;;12.00;94.50;;;;;;5058823;28;20036;-73
2020/12/23 00:20:17;;;;;;;22.00;17.48;;;12.00;94.50;;;;;;5059740;28;20028;-74
2020/12/23 00:22:43;;;;;;;22.90;19.65;;;12.00;94.50;;;;;;5059368;28;20408;-73
2020/12/23 00:25:08;;;;;;;20.75;17.08;;;12.00;94.50;;;;;;5061356;28;20511;-72
2020/12/23 00:27:34;;;;;;;19.27;15.02;;;12.00;94.60;;;;;;5059512;28;20032;-75
2020/12/23 00:30:00;;;;;;;19.15;15.10;;;12.00;94.60;;;;;;5059422;28;20094;-73
2020/12/23 00:32:29;;;;;;;18.67;15.15;;;12.00;94.60;;;;;;5060964;28;20071;-76
2020/12/23 00:34:54;;;;;;;19.50;15.70;;;12.00;94.60;;;;;;5056903;28;20060;-73
2020/12/23 00:37:20;;;;;;;19.00;16.60;;;12.00;94.70;;;;;;5058975;28;20124;-73
2020/12/23 00:39:46;;;;;;;19.13;16.73;;;12.00;94.70;;;;;;5059754;28;20533;-75
2020/12/23 00:42:12;;;;;;;22.05;17.77;;;12.00;94.70;;;;;;5060156;28;20021;-72
2020/12/23 00:44:37;;;;;;;19.83;17.27;;;12.00;94.80;;;;;;5055878;28;20024;-74
2020/12/23 00:47:03;;;;;;;20.85;17.30;;;12.00;94.80;;;;;;5058234;28;20044;-73
2020/12/23 00:49:29;;;;;;;21.90;17.40;;;12.10;94.80;;;;;;5059658;28;20586;-72
2020/12/23 00:51:54;;;;;;;17.45;15.57;;;12.10;94.80;;;;;;5054844;28;20045;-73
2020/12/23 00:54:20;;;;;;;19.10;15.77;;;12.10;94.90;;;;;;5061212;28;20101;-72
2020/12/23 00:56:45;;;;;;;18.95;14.77;;;12.10;94.90;;;;;;5055104;28;20248;-75
2020/12/23 00:59:11;;;;;;;18.50;15.25;;;12.10;94.90;;;;;;5060147;28;20041;-73
2020/12/23 01:01:37;;;;;;;18.20;14.75;;;12.00;94.80;;;;;;5058363;28;20036;-74
2020/12/23 01:04:03;;;;;;;16.67;14.88;;;12.10;94.90;;;;;;5053622;28;20517;-73
2020/12/23 01:06:29;;;;;;;18.40;14.02;;;12.00;94.90;;;;;;5058149;28;20044;-73
2020/12/23 01:08:54;;;;;;;16.77;13.68;;;12.00;94.90;;;;;;5057751;28;20044;-73
2020/12/23 01:11:21;;;;;;;17.00;13.10;;;12.00;94.90;;;;;;5059963;28;20040;-74
2020/12/23 01:13:46;;;;;;;16.00;13.48;;;12.00;95.00;;;;;;5056129;28;20048;-76
2020/12/23 01:16:12;;;;;;;14.80;12.65;;;12.00;95.00;;;;;;5059353;28;20029;-73
2020/12/23 01:18:37;;;;;;;14.10;11.48;;;12.00;95.00;;;;;;5054350;28;20025;-73
2020/12/23 01:21:03;;;;;;;13.98;11.70;;;12.00;95.10;;;;;;5061684;28;20119;-73
2020/12/23 01:23:29;;;;;;;13.43;11.00;;;12.00;95.00;;;;;;5057084;28;20496;-74
2020/12/23 01:25:55;;;;;;;15.50;11.35;;;12.00;95.10;;;;;;5054902;28;20033;-75
2020/12/23 01:28:21;;;;;;;14.10;10.85;;;12.00;95.10;;;;;;5056878;28;20093;-73
2020/12/23 01:30:47;;;;;;;11.48;9.35;;;12.00;95.10;;;;;;5058697;28;20032;-74
2020/12/23 01:33:13;;;;;;;12.07;9.77;;;12.00;95.10;;;;;;5052813;28;20033;-76
2020/12/23 01:35:39;;;;;;;11.70;8.90;;;12.10;95.10;;;;;;5055726;28;20444;-74
2020/12/23 01:38:05;;;;;;;11.48;9.60;;;12.00;95.20;;;;;;5049548;28;20025;-73
2020/12/23 01:40:31;;;;;;;12.43;10.00;;;12.10;95.20;;;;;;5056375;28;20560;-73
2020/12/23 01:42:57;;;;;;;14.35;11.20;;;12.00;95.20;;;;;;5057517;28;20162;-75
2020/12/23 01:45:23;;;;;;;13.57;11.00;;;12.00;95.20;;;;;;5056689;28;22011;-73
2020/12/23 01:47:48;;;;;;;14.07;11.10;;;12.10;95.20;;;;;;5055728;28;20024;-74
2020/12/23 01:50:15;;;;;;;13.68;12.18;;;12.10;95.30;;;;;;5053754;28;20025;-73
2020/12/23 01:52:43;;;;;;;14.27;12.77;;;12.10;95.30;;;;;;5058825;28;20032;-76
2020/12/23 01:55:09;;;;;;;16.15;13.10;;;12.10;95.30;;;;;;5054103;28;20064;-77
2020/12/23 01:57:35;;;;;;;16.20;12.32;;;12.10;95.30;;;;;;5062183;28;20204;-73
2020/12/23 02:00:04;;;;;;;15.20;13.07;;;12.10;95.30;;;;;;5057962;28;20030;-74
2020/12/23 02:02:32;;;;;;;13.68;12.15;;;12.10;95.30;;;;;;5051662;28;20029;-76
2020/12/23 02:05:03;;;;;;;14.23;12.27;;;12.10;95.30;;;;;;5049967;28;20053;-74
2020/12/23 02:07:29;;;;;;;15.02;13.07;;;12.10;95.30;;;;;;5049343;28;20435;-75
2020/12/23 02:09:58;;;;;;;15.07;13.10;;;12.20;95.30;;;;;;5047243;28;20497;-75
2020/12/23 02:12:24;;;;;;;15.63;13.05;;;12.20;95.30;;;;;;5049102;28;20510;-72
2020/12/23 02:14:51;;;;;;;14.45;12.25;;;12.10;95.30;;;;;;5053005;28;20025;-73
2020/12/23 02:17:17;;;;;;;15.23;12.48;;;12.20;95.40;;;;;;5057188;28;20391;-73
2020/12/23 02:19:52;;;;;;;15.20;12.20;;;12.20;95.40;;;;;;5040467;28;20025;-73
2020/12/23 02:22:19;;;;;;;13.65;11.68;;;12.20;95.40;;;;;;5031769;28;20123;-76
2020/12/23 02:24:47;;;;;;;12.95;11.40;;;12.30;95.40;;;;;;5031004;28;20021;-74
2020/12/23 02:27:13;;;;;;;13.60;10.95;;;12.20;95.30;;;;;;5055391;28;20041;-72
2020/12/23 02:29:47;;;;;;;13.15;9.98;;;12.30;95.30;;;;;;5043447;28;20541;-74
2020/12/23 02:32:13;;;;;;;11.30;9.63;;;12.20;95.30;;;;;;5047364;28;20064;-75
2020/12/23 02:34:39;;;;;;;11.07;8.43;;;12.30;95.20;;;;;;5057505;28;20287;-74
2020/12/23 02:37:07;;;;;;;10.23;8.55;;;12.30;95.20;;;;;;5065205;28;20044;-74
2020/12/23 02:39:34;;;;;;;10.15;8.10;;;12.30;95.20;;;;;;5045512;28;20036;-73
2020/12/23 02:42:01;;;;;;;10.07;7.47;;;12.30;95.20;;;;;;5058695;28;20079;-72
2020/12/23 02:44:27;;;;;;;10.20;5.70;;;12.30;95.10;;;;;;5053616;28;20036;-75
2020/12/23 02:47:04;;;;;;;8.05;5.07;;;12.30;95.10;;;;;;5059012;28;20041;-75
2020/12/23 02:49:30;;;;;;;7.05;4.60;;;12.30;95.10;;;;;;5058937;28;20328;-72
2020/12/23 02:51:56;;;;;;;6.88;4.10;;;12.30;95.00;;;;;;5072883;28;20028;-73
2020/12/23 02:54:23;;;;;;;6.03;3.47;;;12.30;95.00;;;;;;5045125;28;20116;-75
2020/12/23 02:56:49;;;;;;;6.00;3.22;;;12.40;94.90;;;;;;5022264;28;20057;-73
2020/12/23 02:59:14;;;;;;;5.72;3.17;;;12.30;94.80;;;;;;5032008;28;20116;-76
2020/12/23 03:01:40;;;;;;;5.75;3.28;;;12.30;94.80;;;;;;5049735;28;20039;-72
2020/12/23 03:04:07;;;;;;;4.95;3.10;;;12.30;94.70;;;;;;5046850;28;20511;-76
2020/12/23 03:06:33;;;;;;;6.68;2.97;;;12.30;94.70;;;;;;5028363;28;20372;-73
2020/12/23 03:09:01;;;;;;;5.13;2.90;;;12.40;94.70;;;;;;5039474;28;20071;-71
2020/12/23 03:11:27;;;;;;;5.10;2.72;;;12.30;94.70;;;;;;5040168;28;20351;-75
2020/12/23 03:13:52;;;;;;;6.30;2.45;;;12.40;94.50;;;;;;5035292;28;20352;-72
2020/12/23 03:16:18;;;;;;;4.15;2.30;;;12.40;94.50;;;;;;5039518;28;20484;-74
2020/12/23 03:18:44;;;;;;;4.60;2.40;;;12.40;94.40;;;;;;5031815;28;20045;-72
2020/12/23 03:21:10;;;;;;;4.93;2.38;;;12.40;94.30;;;;;;5039466;28;20037;-72
2020/12/23 03:23:36;;;;;;;4.13;2.13;;;12.40;94.20;;;;;;5039694;28;20082;-72
2020/12/23 03:26:03;;;;;;;4.22;2.25;;;12.40;94.20;;;;;;5039696;28;20037;-72
2020/12/23 03:28:29;;;;;;;3.63;2.00;;;12.40;94.10;;;;;;5027664;28;20044;-74
2020/12/23 03:30:55;;;;;;;5.72;1.80;;;12.40;94.20;;;;;;5054150;28;20029;-72
2020/12/23 03:33:21;;;;;;;4.20;1.90;;;12.40;94.10;;;;;;5052647;28;20555;-73
2020/12/23 03:35:47;;;;;;;4.32;2.20;;;12.40;94.00;;;;;;5060932;28;20530;-75
2020/12/23 03:38:12;;;;;;;2.35;1.52;;;12.40;94.10;;;;;;5081042;28;20043;-72
2020/12/23 03:40:38;;;;;;;3.40;1.70;;;12.40;94.00;;;;;;5054932;28;20028;-74
2020/12/23 03:43:04;;;;;;;3.78;1.90;;;12.40;94.00;;;;;;5065505;28;20040;-72
2020/12/23 03:45:30;;;;;;;2.75;1.60;;;12.40;94.00;;;;;;5049947;28;20032;-73
2020/12/23 03:47:55;;;;;;;4.18;1.45;;;12.40;93.90;;;;;;5058637;28;20044;-72
2020/12/23 03:50:21;;;;;;;1.90;1.30;;;12.40;93.80;;;;;;5053627;28;20028;-72
2020/12/23 03:52:47;;;;;;;2.17;1.58;;;12.30;93.80;;;;;;5054831;28;20037;-73
2020/12/23 03:55:12;;;;;;;3.83;1.80;;;12.30;93.80;;;;;;5062254;28;20036;-72
2020/12/23 03:57:38;;;;;;;4.65;1.55;;;12.30;93.80;;;;;;5057537;28;20043;-73
2020/12/23 04:00:06;;;;;;;2.38;1.52;;;12.40;93.70;;;;;;5063773;28;20395;-72
2020/12/23 04:02:32;;;;;;;3.53;1.40;;;12.40;93.60;;;;;;5056291;28;20043;-73
2020/12/23 04:04:58;;;;;;;3.45;1.60;;;12.30;93.50;;;;;;5058522;28;20025;-74
2020/12/23 04:07:24;;;;;;;2.47;1.60;;;12.30;93.50;;;;;;5056051;28;20115;-73
2020/12/23 04:09:49;;;;;;;2.28;1.27;;;12.30;93.40;;;;;;5057943;28;20047;-74
2020/12/23 04:12:15;;;;;;;2.63;1.60;;;12.30;93.30;;;;;;5057666;28;20087;-73
2020/12/23 04:14:41;;;;;;;1.70;1.40;;;12.30;93.20;;;;;;5066024;28;20076;-73
2020/12/23 04:17:06;;;;;;;3.15;1.52;;;12.30;93.10;;;;;;5058358;28;20163;-73
2020/12/23 04:19:32;;;;;;;2.80;1.38;;;12.30;93.10;;;;;;5066088;28;20037;-71
2020/12/23 04:21:58;;;;;;;1.73;1.20;;;12.20;93.20;;;;;;5049699;28;20036;-71
2020/12/23 04:24:23;;;;;;;3.55;1.42;;;12.20;93.20;;;;;;5039901;28;20487;-72
2020/12/23 04:26:49;;;;;;;2.00;1.40;;;12.30;93.20;;;;;;5041130;28;20511;-74
2020/12/23 04:29:14;;;;;;;3.20;1.30;;;12.20;93.20;;;;;;5034748;28;20037;-72
2020/12/23 04:31:41;;;;;;;5.63;1.83;;;12.30;93.10;;;;;;5055944;28;20040;-74
2020/12/23 04:34:06;;;;;;;4.25;1.63;;;12.30;93.10;;;;;;5066718;28;20037;-73
2020/12/23 04:36:32;;;;;;;4.68;1.48;;;12.30;93.00;;;;;;5066189;28;20037;-72
2020/12/23 04:38:57;;;;;;;2.10;1.40;;;12.30;93.00;;;;;;5057901;28;20033;-74
2020/12/23 04:41:26;;;;;;;2.35;1.50;;;12.30;93.10;;;;;;5057238;28;20189;-72
2020/12/23 04:43:52;;;;;;;2.63;1.35;;;12.30;93.10;;;;;;5074611;28;20036;-74
2020/12/23 04:46:23;;;;;;;2.88;1.50;;;12.30;93.10;;;;;;5050456;28;20409;-72
2020/12/23 04:48:56;;;;;;;2.38;1.50;;;12.20;93.10;;;;;;5036670;28;20193;-72
2020/12/23 04:51:29;;;;;;;4.18;1.20;;;12.20;93.10;;;;;;5038078;28;20029;-72
2020/12/23 04:53:56;;;;;;;3.85;1.50;;;12.20;93.10;;;;;;5034145;28;20516;-73
2020/12/23 04:56:25;;;;;;;4.38;1.60;;;12.20;93.10;;;;;;5030062;28;20055;-72
2020/12/23 04:58:52;;;;;;;3.05;1.65;;;12.20;93.10;;;;;;5042029;28;20896;-71
2020/12/23 05:01:17;;;;;;;4.25;1.70;;;12.20;93.20;;;;;;5037788;28;20444;-73
2020/12/23 05:03:44;;;;;;;4.35;1.88;;;12.20;93.30;;;;;;5034109;28;20033;-73
2020/12/23 05:06:10;;;;;;;3.50;1.80;;;12.20;93.30;;;;;;5058131;28;20036;-72
2020/12/23 05:08:36;;;;;;;2.72;1.70;;;12.20;93.30;;;;;;5062039;28;20391;-73
2020/12/23 05:11:09;;;;;;;2.20;1.58;;;12.20;93.30;;;;;;5059206;28;20032;-72
2020/12/23 05:13:38;;;;;;;3.88;1.67;;;12.20;93.40;;;;;;5047468;28;20086;-73
2020/12/23 05:16:05;;;;;;;3.05;1.63;;;12.10;93.50;;;;;;5042775;28;20086;-72
2020/12/23 05:18:35;;;;;;;3.58;1.73;;;12.20;93.50;;;;;;5039308;28;20499;-72
2020/12/23 05:21:02;;;;;;;6.00;2.58;;;12.10;93.60;;;;;;5039936;28;20029;-72
2020/12/23 05:23:31;;;;;;;4.35;2.50;;;12.10;93.60;;;;;;5041080;28;20124;-74
2020/12/23 05:26:07;;;;;;;7.07;2.45;;;12.10;93.70;;;;;;5069279;28;20048;-72
2020/12/23 05:28:33;;;;;;;3.47;2.30;;;12.10;93.80;;;;;;5044345;28;20120;-73
2020/12/23 05:31:02;;;;;;;5.43;2.20;;;12.10;93.80;;;;;;5054498;28;20028;-75
2020/12/23 05:33:28;;;;;;;4.35;2.28;;;12.10;93.80;;;;;;5055137;28;20572;-72
2020/12/23 05:35:56;;;;;;;5.13;2.22;;;12.10;93.80;;;;;;5061676;28;20033;-73
2020/12/23 05:38:22;;;;;;;3.65;1.65;;;12.10;93.80;;;;;;5059583;28;20036;-73
2020/12/23 05:40:48;;;;;;;4.38;2.08;;;12.10;93.90;;;;;;5041400;28;20539;-73
2020/12/23 05:43:17;;;;;;;3.78;1.80;;;12.10;93.90;;;;;;5040669;28;20491;-74
2020/12/23 05:45:43;;;;;;;5.03;2.08;;;12.10;93.90;;;;;;5030066;28;20037;-73
2020/12/23 05:48:12;;;;;;;3.65;1.85;;;12.10;94.00;;;;;;5045090;28;20079;-73
2020/12/23 05:50:41;;;;;;;3.20;1.55;;;12.10;94.10;;;;;;5037626;28;20548;-74
2020/12/23 05:53:14;;;;;;;4.03;1.55;;;12.10;94.20;;;;;;5026327;28;20841;-74
2020/12/23 05:55:44;;;;;;;2.33;1.50;;;12.10;94.20;;;;;;5034410;28;20116;-73
2020/12/23 05:58:10;;;;;;;3.20;1.58;;;12.10;94.20;;;;;;5059667;28;20036;-74
2020/12/23 06:00:37;;;;;;;4.60;1.90;;;12.10;94.30;;;;;;5042356;28;20447;-73
2020/12/23 06:03:17;;;;;;;3.65;2.10;;;12.10;94.30;;;;;;5059733;28;20504;-72
2020/12/23 06:05:44;;;;;;;3.10;2.03;;;12.10;94.20;;;;;;5052609;28;20041;-72
2020/12/23 06:08:10;;;;;;;4.68;2.63;;;12.10;94.30;;;;;;5051451;28;20105;-74
2020/12/23 06:10:36;;;;;;;4.13;2.60;;;12.10;94.30;;;;;;5060158;28;20515;-73
2020/12/23 06:13:11;;;;;;;5.20;3.10;;;12.10;94.40;;;;;;5058362;28;20035;-74
2020/12/23 06:15:41;;;;;;;4.53;2.97;;;12.10;94.40;;;;;;5055792;28;20066;-73
2020/12/23 06:18:14;;;;;;;6.65;3.72;;;12.10;94.50;;;;;;5062936;28;20043;-75
2020/12/23 06:20:44;;;;;;;4.97;3.30;;;12.10;94.40;;;;;;5053515;28;20051;-72
2020/12/23 06:23:26;;;;;;;4.65;2.72;;;12.10;94.40;;;;;;5053376;28;20032;-73
2020/12/23 06:25:52;;;;;;;4.13;2.72;;;12.10;94.30;;;;;;5051694;28;20040;-72
2020/12/23 06:28:22;;;;;;;5.88;3.20;;;12.10;94.40;;;;;;5056666;28;20089;-76
2020/12/23 06:30:51;;;;;;;5.65;2.92;;;12.10;94.40;;;;;;5057520;28;20021;-76
2020/12/23 06:33:18;;;;;;;4.85;3.08;;;12.10;94.40;;;;;;5055546;28;20020;-72
2020/12/23 06:35:44;;;;;;;4.28;2.80;;;12.10;94.40;;;;;;5061087;28;21149;-76
2020/12/23 06:38:19;;;;;;;4.15;2.67;;;12.10;94.40;;;;;;5054278;28;20431;-72
2020/12/23 06:40:59;;;;;;;4.82;2.88;;;12.10;94.50;;;;;;5048150;28;20045;-73
2020/12/23 06:43:54;;;;;;;5.07;3.22;;;12.10;94.50;;;;;;5034715;28;20028;-72
2020/12/23 06:46:19;;;;;;;4.45;2.70;;;12.10;94.50;;;;;;5035389;28;20496;-75
2020/12/23 06:48:45;;;;;;;5.15;3.22;;;12.10;94.50;;;;;;5026128;28;20041;-72
2020/12/23 06:51:10;;;;;;;6.10;3.55;;;12.00;94.50;;;;;;5050708;28;20021;-73
2020/12/23 06:53:36;;;;;;;7.22;3.85;;;12.00;94.60;;;;;;5045314;28;20041;-74
2020/12/23 06:56:02;;;;;;;6.55;4.22;;;12.10;94.60;;;;;;5029339;28;20361;-72
2020/12/23 06:58:39;;;;;;;6.57;4.45;;;12.10;94.60;;;;;;5037874;28;20435;-74
2020/12/23 07:01:35;;;;;;;7.57;4.65;;;12.00;94.60;;;;;;5052071;28;20487;-72
2020/12/23 07:04:02;;;;;;;8.70;5.22;;;12.00;94.80;;;;;;5050533;28;20513;-73
2020/12/23 07:06:32;;;;;;;6.75;4.82;;;12.00;94.80;;;;;;5056848;28;20116;-75
2020/12/23 07:09:01;;;;;;;9.02;5.15;;;12.10;94.90;;;;;;5051965;28;20061;-72
2020/12/23 07:11:32;;;;;;;8.80;4.82;;;12.10;94.80;;;;;;5062379;28;20540;-72
2020/12/23 07:13:58;;;;;;;8.70;5.32;;;12.10;94.80;;;;;;5060655;28;20451;-72
2020/12/23 07:16:25;;;;;;;8.45;5.57;;;12.10;94.80;;;;;;5055179;28;20124;-73
2020/12/23 07:18:52;;;;;;;8.60;5.68;;;12.10;94.80;;;;;;5031320;28;20045;-73
2020/12/23 07:21:24;;;;;;;7.95;5.78;;;12.10;94.80;;;;;;5038671;28;20033;-73
2020/12/23 07:23:54;;;;;;;6.90;4.72;;;12.10;94.80;;;;;;5043050;28;20116;-73
2020/12/23 07:26:23;;;;;;;8.30;5.80;;;12.10;94.90;;;;;;5050980;28;20028;-72
2020/12/23 07:28:50;;;;;;;9.73;6.35;;;12.10;94.90;;;;;;5063935;28;20039;-72
2020/12/23 07:31:16;;;;;;;8.75;7.00;;;12.10;94.90;;;;;;5063875;28;20050;-72
2020/12/23 07:33:42;;;;;;;9.55;7.22;;;12.10;94.90;;;;;;5056174;28;20059;-77
2020/12/23 07:36:08;;;;;;;9.93;7.78;;;12.10;94.90;;;;;;5057912;28;20032;-76
2020/12/23 07:38:36;;;;;;;9.85;7.63;;;12.10;95.00;;;;;;5058770;28;20307;-72
2020/12/23 07:41:02;;;;;;;11.07;8.68;;;12.10;94.90;;;;;;5052603;28;20029;-73
2020/12/23 07:43:28;;;;;;;11.20;8.70;;;12.10;94.90;;;;;;5056859;28;20045;-73
2020/12/23 07:45:55;;;;;;;12.55;10.75;;;12.10;94.90;;;;;;5047556;28;20048;-72
2020/12/23 07:48:22;;;;;;;13.43;11.27;;;12.10;95.00;;;;;;5041602;28;20036;-73
2020/12/23 07:50:53;;;;;;;19.23;13.02;;;12.10;94.90;;;;;;5045629;28;20037;-72
2020/12/23 07:53:27;;;;;;;19.02;14.75;;;12.10;94.90;;;;;;5056507;28;20094;-72
2020/12/23 07:56:02;;;;;;;16.80;14.35;;;12.10;94.80;;;;;;5045043;28;20389;-71
2020/12/23 07:58:31;;;;;;;18.15;15.02;;;12.10;94.80;;;;;;5062590;28;20119;-75
2020/12/23 08:00:57;;;;;;;17.02;15.10;;;12.10;94.80;;;;;;5057159;28;20541;-73
2020/12/23 08:03:32;;;;;;;18.05;15.07;;;12.20;94.70;;;;;;5053995;28;20056;-72
2020/12/23 08:06:04;;;;;;;17.35;15.18;;;12.20;94.70;;;;;;5043930;28;20129;-72
2020/12/23 08:08:29;;;;;;;17.05;14.02;;;12.20;94.60;;;;;;5057316;28;20025;-75
2020/12/23 08:10:55;;;;;;;17.58;15.63;;;12.20;94.60;;;;;;5064018;28;20107;-71
2020/12/23 08:13:26;;;;;;;18.15;16.17;;;12.20;94.60;;;;;;5062132;28;20119;-73
2020/12/23 08:16:13;;;;;;;18.75;15.98;;;12.20;94.60;;;;;;5056825;28;20517;-72
2020/12/23 08:18:40;;;;;;;16.65;14.77;;;12.20;94.60;;;;;;5070677;28;20040;-75
2020/12/23 08:21:15;;;;;;;18.88;15.98;;;12.30;94.60;;;;;;5057246;28;20047;-73
2020/12/23 08:23:41;;;;;;;;;;;12.20;94.50;;;;;;5058132;28;20412;-74
2020/12/23 08:26:08;;;;;;;17.88;15.02;;;12.30;94.60;;;;;;5062701;28;19912;-73
2020/12/23 08:28:43;;;;;;;17.52;15.35;;;12.30;94.60;;;;;;5053416;28;20032;-75
2020/12/23 08:31:22;;;;;;;17.45;14.85;;;12.30;94.60;;;;;;5053523;28;20035;-75
2020/12/23 08:33:49;;;;;;;17.92;14.63;;;12.20;94.60;;;;;;5062156;28;20028;-73
2020/12/23 08:36:15;;;;;;;16.48;14.73;;;12.20;94.60;;;;;;5057482;28;20061;-72
2020/12/23 08:38:41;;;;;;;16.35;14.52;;;12.20;94.60;;;;;;5058681;28;20040;-75
2020/12/23 08:41:26;;;;;;;15.73;13.85;;;12.30;94.60;;;;;;5060086;28;20032;-73
2020/12/23 08:43:52;;;;;;;16.15;14.07;;;12.30;94.60;;;;;;5059157;28;20064;-72
2020/12/23 08:46:22;;;;;;;15.15;12.35;;;12.30;94.70;;;;;;5060901;28;20493;-72
2020/12/23 08:48:49;;;;;;;13.82;11.32;;;12.30;94.70;;;;;;5062164;28;20483;-75
2020/12/23 08:51:18;;;;;;;13.82;11.35;;;12.30;94.80;;;;;;5047897;28;20339;-75
2020/12/23 08:53:44;;;;;;;13.65;11.18;;;12.30;94.80;;;;;;5059278;28;20033;-72
2020/12/23 08:56:26;;;;;;;11.52;9.02;;;12.30;94.90;;;;;;5061635;28;20552;-72
2020/12/23 08:59:12;;;;;;;10.30;8.38;;;12.30;94.90;;;;;;5055137;28;20039;-75
2020/12/23 09:01:38;;;;;;;9.65;6.55;;;12.30;94.90;;;;;;5060155;28;20025;-75
2020/12/23 09:04:05;;;;;;;8.73;6.50;;;12.40;94.90;;;;;;5057672;28;20453;-74
2020/12/23 09:06:32;;;;;;;7.78;5.22;;;12.30;94.90;;;;;;5057527;28;20040;-72
2020/12/23 09:09:21;;;;;;;7.45;5.05;;;12.40;95.00;;;;;;5062227;28;20032;-75
2020/12/23 09:11:49;;;;;;;7.10;4.70;;;12.40;95.00;;;;;;5054803;28;20106;-74
2020/12/23 09:14:16;;;;;;;6.97;4.80;;;12.40;94.90;;;;;;5061426;28;20039;-75
2020/12/23 09:16:58;;;;;;;6.32;4.38;;;12.40;95.00;;;;;;5050443;28;20514;-73
2020/12/23 09:19:42;;;;;;;8.23;4.55;;;12.40;95.00;;;;;;5055885;28;20040;-72
2020/12/23 09:22:28;;;;;;;7.13;4.73;;;12.40;95.00;;;;;;5057894;28;20037;-73
2020/12/23 09:25:13;;;;;;;7.97;4.80;;;12.40;95.00;;;;;;5064139;28;20037;-75
2020/12/23 09:27:38;;;;;;;;;;;12.40;94.90;;;;;;5061425;28;20051;-73
2020/12/23 09:30:06;;;;;;;8.35;5.10;;;12.50;95.00;;;;;;5064494;28;19912;-74
2020/12/23 09:32:32;;;;;;;6.95;4.90;;;12.40;95.00;;;;;;5056318;28;20119;-73
2020/12/23 09:35:20;;;;;;;7.38;4.60;;;12.40;94.90;;;;;;5060947;28;20058;-75
2020/12/23 09:37:47;;;;;;;7.55;5.00;;;12.50;94.90;;;;;;5059169;28;20033;-73
2020/12/23 09:40:14;;;;;;;7.38;4.70;;;12.40;94.80;;;;;;5061347;28;20438;-73
2020/12/23 09:42:40;;;;;;;6.80;4.60;;;12.40;94.90;;;;;;5057800;28;20024;-73
2020/12/23 09:45:07;;;;;;;7.78;4.75;;;12.40;94.80;;;;;;5056532;28;20106;-76
2020/12/23 09:47:33;;;;;;;6.75;4.05;;;12.50;94.80;;;;;;5063912;28;20390;-72
2020/12/23 09:50:02;;;;;;;7.03;4.18;;;12.50;94.80;;;;;;5061358;28;20032;-72
2020/12/23 09:52:28;;;;;;;7.45;4.13;;;12.50;94.70;;;;;;5061711;28;20032;-76
2020/12/23 09:54:54;;;;;;;5.22;2.90;;;12.50;94.70;;;;;;5054059;28;20603;-70
2020/12/23 09:57:19;;;;;;;6.82;2.95;;;12.40;94.60;;;;;;5037372;28;20068;-72
2020/12/23 09:59:45;;;;;;;5.03;2.55;;;12.50;94.60;;;;;;5037950;28;20029;-75
2020/12/23 10:02:10;;;;;;;6.20;3.13;;;12.50;94.40;;;;;;5039495;28;20047;-73
2020/12/23 10:04:36;;;;;;;5.60;3.10;;;12.50;94.40;;;;;;5037978;28;20487;-71
2020/12/23 10:07:02;;;;;;;7.00;3.38;;;12.50;94.40;;;;;;5036286;28;20044;-72
2020/12/23 10:09:27;;;;;;;6.50;3.67;;;12.50;94.40;;;;;;5047585;28;20047;-75
2020/12/23 10:11:53;;;;;;;5.88;3.60;;;12.50;94.40;;;;;;5050785;28;20122;-72
2020/12/23 10:14:18;;;;;;;5.80;3.30;;;12.50;94.40;;;;;;5058089;28;20098;-71
2020/12/23 10:16:44;;;;;;;7.63;3.40;;;12.50;94.40;;;;;;5050770;28;20147;-72
2020/12/23 10:19:10;;;;;;;4.43;3.00;;;12.60;94.30;;;;;;5042277;28;20451;-73
2020/12/23 10:21:35;;;;;;;4.90;3.30;;;12.50;94.30;;;;;;5056815;28;20032;-73
2020/12/23 10:24:01;;;;;;;6.18;3.67;;;12.50;94.20;;;;;;5059494;28;20474;-73
2020/12/23 10:26:26;;;;;;;6.47;3.80;;;12.60;94.20;;;;;;5055137;28;21798;-77
2020/12/23 10:28:52;;;;;;;6.40;3.88;;;12.60;94.20;;;;;;5052208;28;20025;-75
2020/12/23 10:31:18;;;;;;;7.30;4.10;;;12.50;94.20;;;;;;5052721;28;20447;-72
2020/12/23 10:33:43;;;;;;;6.43;4.20;;;12.50;94.20;;;;;;5061448;28;20056;-73
2020/12/23 10:36:12;;;;;;;7.53;4.00;;;12.50;94.20;;;;;;5056857;28;20032;-72
2020/12/23 10:38:40;;;;;;;7.25;4.18;;;12.50;94.20;;;;;;5060954;28;20042;-77
2020/12/23 10:41:05;;;;;;;6.78;3.85;;;12.50;94.30;;;;;;5062396;28;20041;-74
2020/12/23 10:43:31;;;;;;;7.28;4.40;;;12.40;94.30;;;;;;5062519;28;20040;-75
2020/12/23 10:45:56;;;;;;;6.45;3.88;;;12.40;94.40;;;;;;5065218;28;20059;-72
2020/12/23 10:48:22;;;;;;;6.68;3.80;;;12.40;94.30;;;;;;5060215;28;20573;-71
2020/12/23 10:50:48;;;;;;;6.07;3.60;;;12.40;94.30;;;;;;5063358;28;20051;-78
2020/12/23 10:53:13;;;;;;;6.57;3.50;;;12.40;94.30;;;;;;5061729;28;20142;-72
2020/12/23 10:55:39;;;;;;;5.40;3.40;;;12.50;94.30;;;;;;5056089;28;20541;-76
2020/12/23 10:58:04;;;;;;;6.00;3.58;;;12.50;94.30;;;;;;5060606;28;20372;-72
2020/12/23 11:00:30;;;;;;;6.32;3.67;;;12.50;94.30;;;;;;5062156;28;20036;-72
2020/12/23 11:02:56;;;;;;;6.57;3.80;;;12.50;94.30;;;;;;5055740;28;20032;-72
2020/12/23 11:05:22;;;;;;;5.40;3.33;;;12.50;94.30;;;;;;5062841;28;20112;-72
2020/12/23 11:07:47;;;;;;;5.13;2.85;;;12.50;94.20;;;;;;5065765;28;20045;-77
2020/12/23 11:10:14;;;;;;;7.35;3.35;;;12.50;94.20;;;;;;5062514;28;20280;-72
2020/12/23 11:12:39;;;;;;;9.35;3.20;;;12.60;94.10;;;;;;5061983;28;20028;-72
2020/12/23 11:15:05;;;;;;;8.38;3.42;;;12.60;94.00;;;;;;5062624;28;20055;-72
2020/12/23 11:17:31;;;;;;;6.78;4.10;;;12.60;93.90;;;;;;5054726;28;20037;-73
2020/12/23 11:19:56;;;;;;;7.43;3.40;;;12.60;93.90;;;;;;5059384;28;20025;-74
2020/12/23 11:22:22;;;;;;;5.95;3.20;;;12.60;93.90;;;;;;5054609;28;20086;-72
2020/12/23 11:24:48;;;;;;;5.93;3.78;;;12.60;94.00;;;;;;5055319;28;20024;-75
2020/12/23 11:27:15;;;;;;;6.55;3.75;;;12.60;94.00;;;;;;5049116;28;20042;-73
2020/12/23 11:29:41;;;;;;;6.15;3.85;;;12.60;94.00;;;;;;5059791;28;20439;-72
2020/12/23 11:32:07;;;;;;;6.53;3.35;;;12.60;94.10;;;;;;5052957;28;20060;-75
2020/12/23 11:34:33;;;;;;;7.55;3.85;;;12.60;94.20;;;;;;5051400;28;20333;-72
2020/12/23 11:37:00;;;;;;;6.38;3.70;;;12.60;94.20;;;;;;5052915;28;20144;-75
2020/12/23 11:39:26;;;;;;;7.15;3.90;;;12.60;94.20;;;;;;5048867;28;20369;-74
2020/12/23 11:42:00;;;;;;;6.85;4.22;;;12.70;94.20;;;;;;5051898;28;20108;-76
2020/12/23 11:44:26;;;;;;;7.82;4.57;;;12.70;94.10;;;;;;5053830;28;20040;-74
2020/12/23 11:46:53;;;;;;;8.73;4.70;;;12.70;94.00;;;;;;5058454;28;20033;-75
2020/12/23 11:49:18;;;;;;;9.57;4.72;;;12.80;94.00;;;;;;5051614;28;20814;-72
2020/12/23 11:51:50;;;;;;;8.65;5.50;;;12.90;93.90;;;;;;5054573;28;20028;-71
2020/12/23 11:54:16;;;;;;;7.72;4.32;;;12.80;93.90;;;;;;5055710;28;20036;-75
2020/12/23 11:56:45;;;;;;;6.80;4.40;;;12.90;93.80;;;;;;5052301;28;20185;-73
2020/12/23 11:59:11;;;;;;;6.32;3.88;;;12.90;93.70;;;;;;5054680;28;20503;-74
2020/12/23 12:01:38;;;;;;;8.93;4.25;;;12.90;93.50;;;;;;5052838;28;20160;-75
2020/12/23 12:04:03;;;;;;;8.05;3.58;;;12.90;93.40;;;;;;5051643;28;20628;-73
2020/12/23 12:06:29;;;;;;;6.07;3.45;;;12.90;93.30;;;;;;5049986;28;20132;-72
2020/12/23 12:08:54;;;;;;;5.93;3.20;;;12.90;93.20;;;;;;5059621;28;20040;-72
2020/12/23 12:11:20;;;;;;;5.57;3.45;;;12.90;93.20;;;;;;5053069;28;20063;-75
2020/12/23 12:13:46;;;;;;;5.95;3.10;;;12.90;93.00;;;;;;5057903;28;20467;-75
2020/12/23 12:16:12;;;;;;;6.72;3.50;;;12.80;93.00;;;;;;5056909;28;20031;-74
2020/12/23 12:18:39;;;;;;;6.15;3.13;;;12.90;93.00;;;;;;5051701;28;20431;-72
2020/12/23 12:21:04;;;;;;;6.22;2.72;;;13.00;92.90;;;;;;5053595;28;20499;-74
2020/12/23 12:23:30;;;;;;;4.45;2.20;;;13.00;92.80;;;;;;5059281;28;20115;-74
2020/12/23 12:25:56;;;;;;;7.15;2.90;;;13.00;92.80;;;;;;5052743;28;20044;-75
2020/12/23 12:28:21;;;;;;;6.38;3.05;;;13.00;92.70;;;;;;5056125;28;20036;-77
2020/12/23 12:30:47;;;;;;;4.72;2.72;;;13.10;92.60;;;;;;5058091;28;20033;-73
2020/12/23 12:33:15;;;;;;;3.85;2.38;;;13.10;92.40;;;;;;5045373;28;20033;-75
2020/12/23 12:35:42;;;;;;;4.13;2.75;;;13.10;92.50;;;;;;5058650;28;20041;-72
2020/12/23 12:38:09;;;;;;;4.15;2.20;;;13.10;92.50;;;;;;5046443;28;20024;-73
2020/12/23 12:40:35;;;;;;;3.90;2.13;;;13.10;92.50;;;;;;5052483;28;20029;-74
2020/12/23 12:43:03;;;;;;;3.88;2.30;;;13.00;92.50;;;;;;5054765;28;20033;-73